Página principal
METAR-TAF:

METAR-TAF

Aeroportos :

Orsk, Rússia

latitude: 51-04-18N, longitude: 058-35-48E, altura: 277 m

Observação actual do tempo

O boletim foi feito há 1 hora e 4 minutos, às 18:00 UTC
Vento 12 kt de oeste
Temperatura -13°C
Humidade 85%
Pressão 1023 hPa
Visibilidade 10 km ou mais
sem nuvens abaixo de 1500 metros e sem cumulonimbus

METAR: UWOR 231800Z 26006MPS CAVOK M13/M15 Q1023 R25/920245 NOSIG RMK QFE743/0991

Hora: 00:04 (19:04 UTC)

Previsão

O boletim foi feito há 2 horas e 15 minutos, às 16:49 UTC
Previsão válida de 23 às 18 UTC a 24 às 03 UTC
Vento 12 kt de oeste com rajadas de 25 kt
Visibilidade: 3100 m
Nuvens fragmentadasa uma altura de 1100 ft
neve fraca, neblina
Temporariamente
de 23 às 18 UTC a 24 às 03 UTC
Vento 6 kt de oeste com rajadas de 17 kt
Visibilidade: 0500 m
a uma altura de 300 ft
nevoeiro gelado

TAF: UWOR 231649Z 2318/2403 27006G13MPS 3100 -SN BR BKN011 TEMPO 2318/2403 26003G09MPS 0500 FZFG VV003

Observações e previsões do tempo de mais de 4000 aeroportos (mensagens METAR e TAF).

As estações disponíveis são os pontos amarelos e vermelhos sobre o mapa.

Mova o rato sobre o mapa para ver o nome da estação.

Depois clique no ponto para visualizar as observações e previsões meteorológicas.

Para alterar o mapa : clique nos botões verdes com uma cruz preta para aumentar o zoom; no botão verde com uma pitada de zoom; ou nas setas verdes para mapas adjacentes.


METAR-TAF: